Flight Track Log - Related Links

Times and Time Zones

All times are in EDT time to prevent confusion due to time zone crossing. See the N55NT flight status page for this flight to view local times or setup timezone preferences in your user account.

Time Position Orientation Groundspeed Altitude Reporting Facility
EDT Latitude Longitude Course Direction KTS MPH feet Rate Location/Type
Mon 07:51:49 PM 43.1167 -78.9667 360° North 126 145 900  Level Buffalo TRACON
Mon 07:52:01 PM 43.1167 -78.9667 144° Southeast 121 139 1,000 738 Climbing Buffalo TRACON
Mon 07:52:54 PM 43.1383 -78.9608 11° North 148 170 1,700 626 Climbing Cleveland Center
Mon 07:53:56 PM 43.1664 -78.9181 48° Northeast 156 180 2,200 484 Climbing Cleveland Center
Mon 07:54:58 PM 43.1642 -78.8486 92° East 171 197 2,700 581 Climbing Cleveland Center
Mon 07:56:00 PM 43.1656 -78.7811 88° East 170 196 3,400 634 Climbing Cleveland Center
Mon 07:57:01 PM 43.1650 -78.7142 91° East 170 196 4,000 585 Climbing Cleveland Center
Mon 07:58:03 PM 43.1667 -78.6469 88° East 170 196 4,600 677 Climbing Cleveland Center
Mon 07:59:05 PM 43.1658 -78.5811 91° East 168 193 5,400 774 Climbing Cleveland Center
Mon 08:00:07 PM 43.1675 -78.5217 88° East 166 191 6,200 774 Climbing Cleveland Center
Mon 08:01:09 PM 43.1522 -78.4669 111° Southeast 158 182 7,000 780 Climbing Cleveland Center
Mon 08:02:10 PM 43.1342 -78.4125 114° Southeast 158 182 7,800 683 Climbing Cleveland Center
Mon 08:03:12 PM 43.1200 -78.3536 108° East 158 182 8,400 581 Climbing Cleveland Center
Mon 08:04:14 PM 43.1050 -78.2933 109° East 162 186 9,000 677 Climbing Cleveland Center
Mon 08:05:16 PM 43.0844 -78.2183 111° Southeast 172 198 9,800 677 Climbing Cleveland Center
Mon 08:06:18 PM 43.0758 -78.1517 100° East 176 203 10,400 585 Climbing Cleveland Center
Mon 08:07:19 PM 43.0731 -78.0833 93° East 178 205 11,000 585 Climbing Cleveland Center
Mon 08:08:21 PM 43.0783 -78.0125 84° East 183 211 11,600 581 Climbing Cleveland Center
Mon 08:09:23 PM 43.0822 -77.9428 86° East 184 212 12,200 629 Climbing Cleveland Center
Mon 08:10:25 PM 43.0839 -77.8725 88° East 184 212 12,900 683 Climbing Cleveland Center
Mon 08:11:26 PM 43.0872 -77.8044 86° East 183 211 13,600 683 Climbing Cleveland Center
Mon 08:12:28 PM 43.0889 -77.7350 88° East 183 211 14,300 677 Climbing Cleveland Center
Mon 08:13:30 PM 43.0906 -77.6481 88° East 185 213 15,000 339 Climbing Cleveland Center
Mon 08:14:32 PM 43.0928 -77.5692 88° East 199 229 15,000  Level Cleveland Center
Mon 08:15:33 PM 43.0950 -77.4850 88° East 215 247 15,000  Level Cleveland Center
Mon 08:16:35 PM 43.0967 -77.4022 88° East 216 249 15,000  Level Cleveland Center
Mon 08:17:37 PM 43.0994 -77.3192 87° East 216 249 15,000  Level Cleveland Center
Mon 08:18:39 PM 43.1014 -77.2375 88° East 216 249 15,000  Level Cleveland Center
Mon 08:19:40 PM 43.1042 -77.1531 87° East 218 251 15,000  Level Cleveland Center
Mon 08:20:42 PM 43.1056 -77.0503 89° East 224 258 15,000  Level Cleveland Center
Mon 08:21:44 PM 43.1075 -76.9642 88° East 224 258 15,000  Level Cleveland Center
Mon 08:22:46 PM 43.1092 -76.8808 88° East 224 258 15,000  Level Cleveland Center
Mon 08:23:24 PM 43.1108 -76.8311 87° East 223 257 15,000  Level Boston Center
Mon 08:24:25 PM 43.1117 -76.7472 89° East 223 257 15,000  Level Boston Center
Mon 08:25:27 PM 43.1144 -76.6642 87° East 222 255 15,000  Level Boston Center
Mon 08:26:28 PM 43.1158 -76.5817 89° East 222 255 15,000  Level Boston Center
Mon 08:27:28 PM 43.1169 -76.5003 89° East 219 252 15,000  Level Boston Center
Mon 08:28:31 PM 43.1186 -76.4183 88° East 216 249 15,000  Level Boston Center
Mon 08:29:32 PM 43.1189 -76.3225 90° East 214 246 15,000  Level Boston Center
Mon 08:30:34 PM 43.1214 -76.2456 87° East 207 238 15,000  Level Boston Center
Mon 08:31:36 PM 43.1225 -76.1650 89° East 208 239 15,000  Level Boston Center
Mon 08:32:37 PM 43.1233 -76.0850 89° East 210 242 15,000  Level Boston Center
Mon 08:33:37 PM 43.1247 -76.0042 89° East 211 243 15,000  Level Boston Center
Mon 08:34:38 PM 43.1253 -75.9244 89° East 211 243 15,000  Level Boston Center
Mon 08:35:40 PM 43.1272 -75.8442 88° East 211 243 15,000  Level Boston Center
Mon 08:36:41 PM 43.1278 -75.7633 89° East 211 243 15,000  Level Boston Center
Mon 08:37:43 PM 43.1292 -75.6850 89° East 211 243 15,000  Level Boston Center
Mon 08:38:43 PM 43.1289 -75.6044 90° East 211 243 15,000  Level Boston Center
Mon 08:39:46 PM 43.1300 -75.5092 89° East 210 242 15,000  Level Boston Center
Mon 08:40:46 PM 43.1306 -75.4297 89° East 210 242 15,000  Level Boston Center
Mon 08:41:46 PM 43.1319 -75.3497 89° East 211 243 15,000  Level Boston Center
Mon 08:42:47 PM 43.1319 -75.2708 90° East 209 241 15,000  Level Boston Center
Mon 08:43:49 PM 43.1328 -75.1922 89° East 209 241 15,000  Level Boston Center
Mon 08:44:51 PM 43.1314 -75.1200 91° East 208 239 15,000  Level Boston Center
Mon 08:45:52 PM 43.1325 -75.0411 89° East 208 239 15,000  Level Boston Center
Mon 08:46:53 PM 43.1347 -74.9458 88° East 208 239 15,000  Level Boston Center
Mon 08:47:54 PM 43.1342 -74.8661 91° East 208 239 15,000  Level Boston Center
Mon 08:48:55 PM 43.1347 -74.7856 89° East 210 242 15,000  Level Boston Center
Mon 08:49:57 PM 43.1344 -74.7067 90° East 210 242 15,000  Level Boston Center
Mon 08:50:58 PM 43.1347 -74.6267 90° East 210 242 15,000  Level Boston Center
Mon 08:51:58 PM 43.1353 -74.5453 89° East 210 242 15,000  Level Boston Center
Mon 08:52:59 PM 43.1353 -74.4650 90° East 210 242 15,000  Level Boston Center
Mon 08:53:59 PM 43.1358 -74.3747 89° East 208 239 15,000  Level Boston Center
Mon 08:55:00 PM 43.1361 -74.2939 90° East 210 242 15,000  Level Boston Center
Mon 08:56:01 PM 43.1358 -74.2136 90° East 210 242 15,000  Level Boston Center
Mon 08:57:03 PM 43.1356 -74.1325 90° East 211 243 15,000  Level Boston Center
Mon 08:58:03 PM 43.1347 -74.0464 91° East 211 243 15,000  Level Boston Center
Mon 08:59:06 PM 43.1353 -73.9658 89° East 212 244 15,000  Level Boston Center
Mon 09:00:07 PM 43.1344 -73.8844 91° East 212 244 15,000  Level Boston Center
Mon 09:01:07 PM 43.1344 -73.8036 90° East 212 244 15,000  Level Boston Center
Mon 09:02:07 PM 43.1339 -73.7231 91° East 212 244 15,000  Level Boston Center
Mon 09:03:10 PM 43.1333 -73.6358 90° East 212 244 15,000  Level Boston Center
Mon 09:04:11 PM 43.1322 -73.5542 91° East 214 246 15,000  Level Boston Center
Mon 09:05:11 PM 43.1317 -73.4719 91° East 214 246 15,000  Level Boston Center
Mon 09:06:13 PM 43.1308 -73.3908 91° East 214 246 15,000  Level Boston Center
Mon 09:07:14 PM 43.1300 -73.3106 91° East 214 246 15,000  Level Boston Center
Mon 09:08:15 PM 43.1289 -73.2236 91° East 213 245 15,000  Level Boston Center
Mon 09:09:15 PM 43.1278 -73.1419 91° East 213 245 15,000  Level Boston Center
Mon 09:10:15 PM 43.1267 -73.0603 91° East 214 246 15,000  Level Boston Center
Mon 09:11:16 PM 43.1261 -72.9928 91° East 214 246 15,000  Level Boston Center
Mon 09:12:16 PM 43.1247 -72.8958 91° East 214 246 15,000  Level Boston Center
Mon 09:13:20 PM 43.1233 -72.8139 91° East 214 246 15,000  Level Boston Center
Mon 09:14:20 PM 43.1206 -72.7314 93° East 214 246 15,000  Level Boston Center
Mon 09:15:22 PM 43.1208 -72.6489 90° East 214 246 15,000 -244 Level Boston Center
Mon 09:16:23 PM 43.1189 -72.5661 92° East 216 249 14,500 -744 Descending Boston Center
Mon 09:17:23 PM 43.1164 -72.4736 92° East 237 273 13,500 -1,041 Descending Boston Center
Mon 09:18:24 PM 43.1158 -72.3806 90° East 244 281 12,400 -1,131 Descending Boston Center
Mon 09:19:25 PM 43.1139 -72.2889 92° East 244 281 11,200 -689 Descending Boston Center
Mon 09:20:26 PM 43.1131 -72.1969 91° East 226 260 11,000 -344 Descending Boston Center
Mon 09:21:27 PM 43.1114 -72.1111 91° East 211 243 10,500 -590 Descending Boston Center
Mon 09:22:28 PM 43.1083 -72.0289 93° East 216 249 9,800 -689 Descending Boston Center
Mon 09:23:29 PM 43.1078 -71.9475 91° East 216 249 9,100 -689 Descending Boston Center
Mon 09:24:30 PM 43.1117 -71.8675 86° East 215 247 8,400 -694 Descending Boston Center
Mon 09:25:30 PM 43.1250 -71.7889 77° East 212 244 7,700 -744 Descending Boston Center
Mon 09:26:31 PM 43.1375 -71.7064 78° East 210 242 6,900 -677 Descending Boston Center
Mon 09:27:34 PM 43.1219 -71.6297 106° East 208 239 6,300 -629 Descending Boston Center
Mon 09:28:35 PM 43.1064 -71.5544 106° East 206 237 5,600 -689 Descending Boston Center
Mon 09:29:36 PM 43.0900 -71.4792 107° East 206 237 4,900 -744 Descending Boston Center
Mon 09:30:36 PM 43.0742 -71.4003 105° East 205 236 4,100 -446 Descending Boston Center
Mon 09:31:37 PM 43.0603 -71.3311 105° East 189 217 4,000 -97 Descending Boston Center
Mon 09:32:40 PM 43.0494 -71.2678 103° East 175 201 3,900 -242 Descending Boston Center
Mon 09:33:41 PM 43.0361 -71.2006 105° East 179 206 3,500 -446 Descending Boston Center
Mon 09:34:41 PM 43.0242 -71.1311 103° East 184 212 3,000 -244 Descending Boston Center
Mon 09:35:44 PM 43.0111 -71.0619 104° East 177 204 3,000  Level Boston Center
Mon 09:36:44 PM 42.9997 -71.0022 105° East 167 192 3,000  Level Boston Center
Mon 09:37:45 PM 42.9883 -70.9425 105° East 166 191 3,000  Level Boston Center
Mon 09:38:45 PM 42.9689 -70.8908 117° Southeast 160 184 3,000  Level Boston Center
Mon 09:39:46 PM 42.9294 -70.8511 144° Southeast 163 188 3,000 -205 Level Boston Center
Mon 09:41:41 PM 42.9333 -70.7333 90° East 180 207 2,400 -377 Descending KA90
Mon 09:42:41 PM 42.9667 -70.7333 360° North 160 184 1,900 -400 Descending KA90
Mon 09:43:41 PM 43.0000 -70.7500 340° North 143 165 1,600 -455 Descending KA90
Mon 09:44:53 PM 43.0342 -70.7872 321° Northwest 134 154 900 -632 Descending Boston Center
Mon 09:45:54 PM 43.0628 -70.8114 328° Northwest 127 146 200 -344 Descending Boston Center
Mon 09:46:55 PM 43.0875 -70.8311 330° Northwest 125 144 200  Level Boston Center

Login

Don't have an account? Register now (free) for customized features, flight alerts, and more!